createdAt,value
2019-04-25T00:00:21.439Z,79.96
2019-04-25T00:01:21.570Z,79.38
2019-04-25T00:02:21.321Z,79.57
2019-04-25T00:03:22.325Z,79.48
2019-04-25T00:04:21.573Z,79.38
2019-04-25T00:05:21.394Z,79.77
2019-04-25T00:06:21.528Z,79.67
2019-04-25T00:07:21.762Z,79.67
2019-04-25T00:08:21.845Z,79.48
2019-04-25T00:09:22.080Z,79.48
2019-04-25T00:10:22.321Z,78.91
2019-04-25T00:11:22.422Z,79.19
2019-04-25T00:12:22.516Z,79.57
2019-04-25T00:13:22.716Z,79.57
2019-04-25T00:14:22.939Z,79.77
2019-04-25T00:15:23.149Z,80.24
2019-04-25T00:16:23.405Z,80.24
2019-04-25T00:17:23.452Z,80.05
2019-04-25T00:18:23.659Z,80.15
2019-04-25T00:19:23.870Z,80.11
2019-04-25T00:20:24.085Z,80.53
2019-04-25T00:21:24.305Z,80.11
2019-04-25T00:22:24.445Z,80.20
2019-04-25T00:23:24.505Z,80.39
2019-04-25T00:24:24.777Z,81.15
2019-04-25T00:25:24.860Z,81.35
2019-04-25T00:26:25.068Z,80.96
2019-04-25T00:27:25.251Z,81.44
2019-04-25T00:28:25.505Z,81.25
2019-04-25T00:29:25.629Z,81.06
2019-04-25T00:30:25.739Z,81.15
2019-04-25T00:31:26.123Z,80.96
2019-04-25T00:32:26.038Z,81.73
2019-04-25T00:33:26.159Z,81.73
2019-04-25T00:34:26.931Z,81.44
2019-04-25T00:35:26.484Z,81.82
2019-04-25T00:36:26.717Z,81.92
2019-04-25T00:37:26.831Z,81.25
2019-04-25T00:38:26.917Z,81.73
2019-04-25T00:39:27.148Z,80.87
2019-04-25T00:40:27.249Z,81.73
2019-04-25T00:41:27.333Z,81.54
2019-04-25T00:42:27.537Z,82.01
2019-04-25T00:43:27.770Z,82.01
2019-04-25T00:44:27.857Z,81.44
2019-04-25T00:45:28.074Z,81.88
2019-04-25T00:46:28.272Z,82.30
2019-04-25T00:47:28.485Z,81.92
2019-04-25T00:48:28.737Z,82.20
2019-04-25T00:49:28.821Z,82.17
2019-04-25T00:50:29.030Z,83.02
2019-04-25T00:51:29.120Z,82.83
2019-04-25T00:52:29.342Z,82.83
2019-04-25T00:53:29.559Z,82.83
2019-04-25T00:54:31.197Z,83.21
2019-04-25T00:55:31.463Z,83.40
2019-04-25T00:56:30.143Z,83.69
2019-04-25T00:57:31.926Z,83.31
2019-04-25T00:58:31.506Z,83.12
2019-04-25T00:59:32.062Z,82.83
2019-04-25T01:00:32.590Z,83.21
2019-04-25T01:01:31.710Z,83.21
2019-04-25T01:02:31.482Z,83.02
2019-04-25T01:03:31.755Z,82.64
2019-04-25T01:04:31.607Z,82.73
2019-04-25T01:05:31.702Z,82.54
2019-04-25T01:06:31.984Z,83.02
2019-04-25T01:07:34.293Z,82.64
2019-04-25T01:08:32.265Z,82.73
2019-04-25T01:09:32.483Z,82.17
2019-04-25T01:10:32.678Z,82.83
2019-04-25T01:11:32.879Z,82.83
2019-04-25T01:12:33.066Z,82.83
2019-04-25T01:13:33.256Z,82.64
2019-04-25T01:14:33.780Z,82.83
2019-04-25T01:15:33.673Z,82.54
2019-04-25T01:16:33.880Z,83.31
2019-04-25T01:17:34.075Z,83.40
2019-04-25T01:18:35.458Z,83.55
2019-04-25T01:19:34.535Z,83.84
2019-04-25T01:20:34.592Z,83.93
2019-04-25T01:21:34.779Z,84.31
2019-04-25T01:22:34.919Z,83.55
2019-04-25T01:23:34.994Z,83.65
2019-04-25T01:24:35.196Z,84.22
2019-04-25T01:25:41.058Z,84.12
2019-04-25T01:26:35.668Z,84.03
2019-04-25T01:27:35.769Z,84.03
2019-04-25T01:28:35.950Z,84.31
2019-04-25T01:29:36.199Z,83.93
2019-04-25T01:30:36.345Z,83.84
2019-04-25T01:31:36.465Z,83.84
2019-04-25T01:32:36.542Z,83.84
2019-04-25T01:33:36.760Z,83.84
2019-04-25T01:34:36.966Z,83.93
2019-04-25T01:35:37.143Z,84.22
2019-04-25T01:36:37.366Z,83.93
2019-04-25T01:37:37.445Z,84.12
2019-04-25T01:38:37.642Z,84.22
2019-04-25T01:39:37.850Z,84.12
2019-04-25T01:40:37.998Z,84.60
2019-04-25T01:41:38.071Z,84.60
2019-04-25T01:42:38.263Z,84.31
2019-04-25T01:43:38.471Z,85.17
2019-04-25T01:44:38.655Z,84.41
2019-04-25T01:45:38.836Z,84.31
2019-04-25T01:46:39.019Z,84.69
2019-04-25T01:47:39.201Z,84.50
2019-04-25T01:48:39.432Z,84.60
2019-04-25T01:49:39.498Z,84.22
2019-04-25T01:50:39.732Z,84.50
2019-04-25T01:51:39.806Z,84.31
2019-04-25T01:52:40.016Z,84.60
2019-04-25T01:53:40.210Z,84.60
2019-04-25T01:54:40.453Z,84.60
2019-04-25T01:55:53.024Z,84.50
2019-04-25T01:56:40.731Z,84.50
2019-04-25T01:57:40.961Z,85.08
2019-04-25T01:58:41.074Z,85.17
2019-04-25T01:59:41.142Z,84.79
2019-04-25T02:00:41.346Z,85.03
2019-04-25T02:01:41.564Z,84.94
2019-04-25T02:02:41.650Z,84.84
2019-04-25T02:03:41.838Z,85.03
2019-04-25T02:04:42.020Z,84.94
2019-04-25T02:05:43.816Z,85.27
2019-04-25T02:06:43.411Z,84.84
2019-04-25T02:07:44.345Z,85.08
2019-04-25T02:08:44.029Z,85.08
2019-04-25T02:09:43.556Z,85.41
2019-04-25T02:10:44.006Z,85.32
2019-04-25T02:11:43.932Z,85.22
2019-04-25T02:12:43.607Z,84.84
2019-04-25T02:13:43.780Z,85.32
2019-04-25T02:14:43.654Z,84.84
2019-04-25T02:15:43.877Z,84.94
2019-04-25T02:16:44.101Z,84.84
2019-04-25T02:17:44.306Z,84.84
2019-04-25T02:18:44.507Z,84.46
2019-04-25T02:19:44.746Z,84.08
2019-04-25T02:20:44.838Z,83.98
2019-04-25T02:21:44.901Z,83.89
2019-04-25T02:22:45.114Z,84.08
2019-04-25T02:23:45.304Z,84.08
2019-04-25T02:24:45.569Z,83.98
2019-04-25T02:25:45.682Z,84.17
2019-04-25T02:26:45.773Z,84.65
2019-04-25T02:27:46.103Z,84.84
2019-04-25T02:28:46.058Z,84.84
2019-04-25T02:29:46.275Z,84.84
2019-04-25T02:30:46.404Z,85.32
2019-04-25T02:31:46.593Z,84.46
2019-04-25T02:32:46.824Z,85.32
2019-04-25T02:33:47.001Z,84.84
2019-04-25T02:34:47.090Z,85.03
2019-04-25T02:35:47.284Z,85.22
2019-04-25T02:36:47.511Z,85.32
2019-04-25T02:37:47.585Z,84.94
2019-04-25T02:38:47.796Z,85.22
2019-04-25T02:39:48.021Z,85.56
2019-04-25T02:40:48.961Z,85.56
2019-04-25T02:41:48.299Z,85.66
2019-04-25T02:42:48.416Z,85.56
2019-04-25T02:43:48.498Z,85.75
2019-04-25T02:44:48.738Z,86.32
2019-04-25T02:45:48.874Z,86.13
2019-04-25T02:46:48.986Z,85.85
2019-04-25T02:47:49.096Z,85.08
2019-04-25T02:48:49.243Z,85.28
2019-04-25T02:49:49.320Z,85.66
2019-04-25T02:50:49.523Z,85.66
2019-04-25T02:51:49.766Z,85.94
2019-04-25T02:52:49.863Z,85.56
2019-04-25T02:53:49.922Z,85.47
2019-04-25T02:54:50.178Z,85.75
2019-04-25T02:55:50.233Z,85.66
2019-04-25T02:56:50.475Z,86.28
2019-04-25T02:57:50.554Z,86.99
2019-04-25T02:58:50.766Z,87.32
2019-04-25T02:59:50.898Z,87.27
2019-04-25T03:00:59.789Z,87.42
2019-04-25T03:01:51.119Z,87.71
2019-04-25T03:02:51.311Z,86.90
2019-04-25T03:03:51.537Z,86.85
2019-04-25T03:04:51.715Z,86.76
2019-04-25T03:05:51.791Z,87.04
2019-04-25T03:06:51.893Z,87.08
2019-04-25T03:07:54.268Z,86.61
2019-04-25T03:08:54.305Z,86.70
2019-04-25T03:09:54.623Z,86.61
2019-04-25T03:10:54.306Z,86.42
2019-04-25T03:11:54.644Z,86.51
2019-04-25T03:12:54.430Z,86.80
2019-04-25T03:13:54.579Z,86.61
2019-04-25T03:14:54.980Z,86.80
2019-04-25T03:15:55.548Z,87.08
2019-04-25T03:16:54.343Z,86.70
2019-04-25T03:17:54.690Z,86.80
2019-04-25T03:18:54.485Z,86.42
2019-04-25T03:19:54.432Z,85.75
2019-04-25T03:20:54.831Z,85.94
2019-04-25T03:21:55.058Z,86.04
2019-04-25T03:22:54.870Z,86.22
2019-04-25T03:23:55.057Z,87.08
2019-04-25T03:24:55.115Z,87.37
2019-04-25T03:25:55.178Z,87.85
2019-04-25T03:26:55.395Z,88.13
2019-04-25T03:27:55.464Z,87.65
2019-04-25T03:28:55.626Z,87.13
2019-04-25T03:29:55.699Z,87.42
2019-04-25T03:30:57.223Z,87.52
2019-04-25T03:31:56.421Z,87.52
2019-04-25T03:32:56.435Z,87.71
2019-04-25T03:33:56.459Z,87.52
2019-04-25T03:34:56.697Z,87.32
2019-04-25T03:35:56.801Z,86.94
2019-04-25T03:36:56.937Z,86.66
2019-04-25T03:37:57.122Z,87.04
2019-04-25T03:38:57.193Z,86.90
2019-04-25T03:39:57.379Z,86.99
2019-04-25T03:40:57.503Z,86.94
2019-04-25T03:41:57.731Z,87.04
2019-04-25T03:42:57.938Z,86.94
2019-04-25T03:43:58.162Z,86.66
2019-04-25T03:44:58.237Z,86.85
2019-04-25T03:45:58.467Z,86.76
2019-04-25T03:46:58.686Z,86.66
2019-04-25T03:47:58.762Z,86.09
2019-04-25T03:48:58.966Z,86.09
2019-04-25T03:49:59.161Z,86.85
2019-04-25T03:50:59.360Z,86.47
2019-04-25T03:51:59.549Z,86.94
2019-04-25T03:52:59.746Z,86.94
2019-04-25T03:53:59.938Z,86.85
2019-04-25T03:55:00.123Z,86.57
2019-04-25T03:56:00.343Z,87.04
2019-04-25T03:57:00.411Z,86.85
2019-04-25T03:58:00.617Z,86.76
2019-04-25T03:59:00.830Z,87.23
2019-04-25T04:00:01.036Z,87.42
2019-04-25T04:01:01.276Z,87.42
2019-04-25T04:02:01.380Z,88.09
2019-04-25T04:03:01.504Z,87.90
2019-04-25T04:04:04.309Z,88.09
2019-04-25T04:05:04.583Z,87.71
2019-04-25T04:06:01.860Z,87.71
2019-04-25T04:07:05.789Z,87.76
2019-04-25T04:08:04.274Z,88.46
2019-04-25T04:09:04.670Z,88.46
2019-04-25T04:10:04.484Z,88.56
2019-04-25T04:11:05.002Z,88.75
2019-04-25T04:12:04.337Z,88.42
2019-04-25T04:13:05.132Z,87.80
2019-04-25T04:14:04.892Z,88.13
2019-04-25T04:15:04.731Z,87.66
2019-04-25T04:16:05.179Z,87.95
2019-04-25T04:17:05.085Z,88.23
2019-04-25T04:18:05.153Z,87.95
2019-04-25T04:19:05.673Z,88.33
2019-04-25T04:20:05.614Z,88.52
2019-04-25T04:21:05.402Z,88.33
2019-04-25T04:22:05.438Z,88.42
2019-04-25T04:23:05.616Z,88.80
2019-04-25T04:24:05.231Z,88.80
2019-04-25T04:25:05.923Z,88.33
2019-04-25T04:26:05.377Z,88.18
2019-04-25T04:27:06.711Z,88.23
2019-04-25T04:28:06.216Z,88.04
2019-04-25T04:29:05.806Z,88.33
2019-04-25T04:30:06.477Z,88.71
2019-04-25T04:31:06.633Z,88.80
2019-04-25T04:32:06.915Z,88.52
2019-04-25T04:33:06.978Z,88.37
2019-04-25T04:34:07.129Z,88.37
2019-04-25T04:35:07.298Z,88.56
2019-04-25T04:36:07.419Z,87.90
2019-04-25T04:37:07.623Z,88.46
2019-04-25T04:38:08.038Z,88.18
2019-04-25T04:39:07.762Z,87.71
2019-04-25T04:40:08.056Z,87.80
2019-04-25T04:41:08.090Z,87.23
2019-04-25T04:42:08.370Z,87.90
2019-04-25T04:43:08.065Z,87.80
2019-04-25T04:44:08.332Z,87.71
2019-04-25T04:45:08.480Z,87.99
2019-04-25T04:46:08.662Z,87.90
2019-04-25T04:47:08.555Z,88.09
2019-04-25T04:48:08.745Z,88.37
2019-04-25T04:49:08.960Z,88.18
2019-04-25T04:50:09.116Z,88.37
2019-04-25T04:51:09.175Z,89.23
2019-04-25T04:52:09.370Z,89.04
2019-04-25T04:53:09.438Z,88.66
2019-04-25T04:54:09.620Z,89.23
2019-04-25T04:55:11.227Z,88.46
2019-04-25T04:56:11.364Z,88.37
2019-04-25T04:57:25.226Z,88.37
2019-04-25T04:58:11.228Z,88.56
2019-04-25T04:59:10.962Z,87.90
2019-04-25T05:00:11.069Z,88.09
2019-04-25T05:01:11.118Z,88.09
2019-04-25T05:02:11.509Z,87.80
2019-04-25T05:03:11.225Z,87.99
2019-04-25T05:04:11.235Z,87.80
2019-04-25T05:05:12.045Z,87.52
2019-04-25T05:06:11.664Z,87.23
2019-04-25T05:07:11.875Z,87.80
2019-04-25T05:08:12.985Z,87.23
2019-04-25T05:09:14.340Z,87.52
2019-04-25T05:10:14.509Z,87.13
2019-04-25T05:11:15.453Z,87.42
2019-04-25T05:12:15.262Z,87.04
2019-04-25T05:13:15.773Z,87.32
2019-04-25T05:14:15.354Z,87.23
2019-04-25T05:15:16.908Z,87.80
2019-04-25T05:16:15.070Z,87.61
2019-04-25T05:17:15.202Z,87.52
2019-04-25T05:18:20.658Z,87.52
2019-04-25T05:19:16.755Z,87.08
2019-04-25T05:20:16.009Z,86.90
2019-04-25T05:21:16.203Z,86.85
2019-04-25T05:22:16.838Z,86.90
2019-04-25T05:23:15.978Z,87.71
2019-04-25T05:24:16.410Z,87.71
2019-04-25T05:25:16.673Z,87.04
2019-04-25T05:26:16.321Z,87.32
2019-04-25T05:27:30.564Z,87.56
2019-04-25T05:28:17.314Z,87.37
2019-04-25T05:29:20.084Z,86.70
2019-04-25T05:30:16.590Z,86.90
2019-04-25T05:31:16.914Z,86.51
2019-04-25T05:32:17.058Z,86.70
2019-04-25T05:33:18.572Z,86.42
2019-04-25T05:34:17.165Z,85.94
2019-04-25T05:35:16.494Z,85.80
2019-04-25T05:36:17.531Z,85.80
2019-04-25T05:37:18.048Z,84.75
2019-04-25T05:38:18.026Z,85.13
2019-04-25T05:39:18.060Z,84.46
2019-04-25T05:40:18.257Z,84.75
2019-04-25T05:41:20.281Z,84.94
2019-04-25T05:42:18.522Z,85.03
2019-04-25T05:43:20.595Z,84.75
2019-04-25T05:44:19.352Z,84.46
2019-04-25T05:45:18.936Z,84.22
2019-04-25T05:46:19.017Z,83.93
2019-04-25T05:47:20.518Z,83.55
2019-04-25T05:48:19.016Z,82.79
2019-04-25T05:49:19.306Z,82.41
2019-04-25T05:50:19.917Z,82.79
2019-04-25T05:51:19.553Z,82.50
2019-04-25T05:52:19.922Z,82.89
2019-04-25T05:53:19.852Z,82.69
2019-04-25T05:54:20.596Z,82.21
2019-04-25T05:55:21.104Z,81.65
2019-04-25T05:56:20.221Z,81.93
2019-04-25T05:57:20.439Z,82.31
2019-04-25T05:58:20.651Z,81.88
2019-04-25T05:59:21.797Z,81.74
2019-04-25T06:00:21.044Z,82.21
2019-04-25T06:01:21.158Z,82.45
2019-04-25T06:02:21.577Z,82.35
2019-04-25T06:03:21.462Z,81.59
2019-04-25T06:04:21.538Z,81.35
2019-04-25T06:05:23.382Z,80.96
2019-04-25T06:06:23.379Z,80.39
2019-04-25T06:07:22.017Z,80.15
2019-04-25T06:08:22.126Z,79.38
2019-04-25T06:09:24.028Z,78.28
2019-04-25T06:10:22.421Z,77.70
2019-04-25T06:11:23.921Z,76.56
2019-04-25T06:12:23.730Z,76.94
2019-04-25T06:13:23.855Z,76.60
2019-04-25T06:14:24.066Z,75.35
2019-04-25T06:15:24.028Z,75.07
2019-04-25T06:16:24.219Z,74.21
2019-04-25T06:17:24.573Z,73.86
2019-04-25T06:18:24.881Z,73.29
2019-04-25T06:19:25.249Z,73.77
2019-04-25T06:20:24.658Z,73.19
2019-04-25T06:21:24.596Z,73.19
2019-04-25T06:22:24.685Z,72.75
2019-04-25T06:23:25.636Z,73.04
2019-04-25T06:24:25.895Z,71.70
2019-04-25T06:25:32.179Z,71.61
2019-04-25T06:26:34.734Z,70.56
2019-04-25T06:27:25.867Z,70.75
2019-04-25T06:28:26.158Z,70.50
2019-04-25T06:29:26.030Z,70.75
2019-04-25T06:30:26.000Z,70.94
2019-04-25T06:31:26.858Z,70.84
2019-04-25T06:32:26.874Z,70.11
2019-04-25T06:33:27.008Z,69.44
2019-04-25T06:34:28.494Z,69.25
2019-04-25T06:35:27.511Z,68.90
2019-04-25T06:36:27.120Z,68.62
2019-04-25T06:37:27.023Z,68.52
2019-04-25T06:38:27.529Z,68.33
2019-04-25T06:39:27.934Z,68.33
2019-04-25T06:40:29.763Z,68.42
2019-04-25T06:41:28.177Z,67.47
2019-04-25T06:42:27.663Z,67.41
2019-04-25T06:43:28.047Z,67.41
2019-04-25T06:44:29.117Z,66.80
2019-04-25T06:45:28.295Z,66.41
2019-04-25T06:46:28.862Z,65.65
2019-04-25T06:47:29.531Z,65.55
2019-04-25T06:48:29.027Z,65.88
2019-04-25T06:49:29.387Z,66.35
2019-04-25T06:50:29.328Z,66.25
2019-04-25T06:51:29.947Z,65.68
2019-04-25T06:52:31.818Z,65.68
2019-04-25T06:53:30.544Z,64.85
2019-04-25T06:54:30.179Z,64.56
2019-04-25T06:55:30.365Z,64.28
2019-04-25T06:56:30.817Z,63.35
2019-04-25T06:57:30.737Z,62.87
2019-04-25T06:58:32.237Z,62.62
2019-04-25T06:59:31.116Z,62.71
2019-04-25T07:00:36.338Z,62.04
2019-04-25T07:01:31.494Z,61.56
2019-04-25T07:02:31.697Z,60.72
2019-04-25T07:03:31.907Z,60.11
2019-04-25T07:04:33.675Z,58.42
2019-04-25T07:05:35.853Z,56.52
2019-04-25T07:06:33.851Z,55.49
2019-04-25T07:07:34.889Z,54.56
2019-04-25T07:08:33.324Z,53.98
2019-04-25T07:09:34.959Z,53.02
2019-04-25T07:10:33.898Z,53.14
2019-04-25T07:11:34.894Z,51.79
2019-04-25T07:12:34.858Z,51.17
2019-04-25T07:13:38.297Z,50.49
2019-04-25T07:14:36.800Z,50.13
2019-04-25T07:15:35.186Z,49.65
2019-04-25T07:16:34.702Z,49.94
2019-04-25T07:17:35.039Z,49.00
2019-04-25T07:18:36.987Z,47.65
2019-04-25T07:19:35.569Z,47.94
2019-04-25T07:20:35.538Z,48.33
2019-04-25T07:21:35.642Z,47.58
2019-04-25T07:22:36.193Z,47.19
2019-04-25T07:23:35.818Z,46.42
2019-04-25T07:24:35.825Z,47.22
2019-04-25T07:25:36.714Z,46.47
2019-04-25T07:26:39.538Z,47.22
2019-04-25T07:27:36.323Z,45.38
2019-04-25T07:28:36.923Z,44.07
2019-04-25T07:29:36.647Z,43.88
2019-04-25T07:30:48.367Z,42.82
2019-04-25T07:31:37.036Z,41.77
2019-04-25T07:32:37.114Z,41.48
2019-04-25T07:33:37.303Z,41.29
2019-04-25T07:34:37.502Z,41.89
2019-04-25T07:35:37.869Z,41.31
2019-04-25T07:36:37.869Z,41.31
2019-04-25T07:37:41.549Z,41.42
2019-04-25T07:38:38.181Z,40.94
2019-04-25T07:39:38.390Z,40.46
2019-04-25T07:40:38.599Z,40.28
2019-04-25T07:41:38.830Z,40.07
2019-04-25T07:42:38.938Z,39.61
2019-04-25T07:43:39.255Z,40.84
2019-04-25T07:44:49.760Z,40.86
2019-04-25T07:45:39.640Z,39.51
2019-04-25T07:46:40.334Z,38.53
2019-04-25T07:47:40.371Z,39.88
2019-04-25T07:48:39.871Z,40.77
2019-04-25T07:49:40.094Z,40.11
2019-04-25T07:50:40.173Z,39.14
2019-04-25T07:51:40.629Z,39.53
2019-04-25T07:52:40.408Z,40.13
2019-04-25T07:53:40.622Z,38.19
2019-04-25T07:54:40.845Z,38.79
2019-04-25T07:55:43.238Z,38.40
2019-04-25T07:56:41.148Z,37.94
2019-04-25T07:57:42.120Z,37.07
2019-04-25T07:58:49.602Z,37.15
2019-04-25T07:59:43.648Z,37.73
2019-04-25T08:00:41.769Z,37.45
2019-04-25T08:01:43.489Z,37.24
2019-04-25T08:02:43.557Z,37.45
2019-04-25T08:03:45.030Z,36.50
2019-04-25T08:04:44.206Z,36.52
2019-04-25T08:05:44.010Z,36.22
2019-04-25T08:06:44.323Z,36.52
2019-04-25T08:07:43.739Z,35.66
2019-04-25T08:08:44.186Z,37.49
2019-04-25T08:09:44.304Z,37.32
2019-04-25T08:10:45.306Z,36.54
2019-04-25T08:11:43.509Z,36.15
2019-04-25T08:12:44.410Z,35.70
2019-04-25T08:13:43.875Z,35.42
2019-04-25T08:14:45.897Z,35.33
2019-04-25T08:15:44.307Z,35.25
2019-04-25T08:16:44.575Z,34.45
2019-04-25T08:17:44.700Z,33.98
2019-04-25T08:18:44.782Z,34.27
2019-04-25T08:19:45.014Z,33.96
2019-04-25T08:20:46.371Z,33.58
2019-04-25T08:21:45.342Z,34.17
2019-04-25T08:22:55.725Z,35.05
2019-04-25T08:23:47.321Z,35.71
2019-04-25T08:24:46.130Z,34.19
2019-04-25T08:25:46.102Z,34.19
2019-04-25T08:26:46.198Z,32.55
2019-04-25T08:27:46.446Z,31.77
2019-04-25T08:28:55.019Z,32.06
2019-04-25T08:29:46.813Z,32.92
2019-04-25T08:30:46.901Z,32.05
2019-04-25T08:31:47.122Z,32.91
2019-04-25T08:32:47.339Z,33.38
2019-04-25T08:33:47.564Z,34.17
2019-04-25T08:34:47.872Z,34.88
2019-04-25T08:36:03.386Z,34.19
2019-04-25T08:36:48.154Z,34.09
2019-04-25T08:37:48.385Z,34.37
2019-04-25T08:38:48.525Z,33.22
2019-04-25T08:39:48.667Z,33.01
2019-04-25T08:40:48.791Z,32.24
2019-04-25T08:41:48.869Z,32.62
2019-04-25T08:42:49.072Z,34.00
2019-04-25T08:43:49.235Z,34.27
2019-04-25T08:44:49.684Z,33.98
2019-04-25T08:45:49.798Z,32.94
2019-04-25T08:46:49.774Z,33.04
2019-04-25T08:47:49.938Z,32.84
2019-04-25T08:48:50.083Z,32.37
2019-04-25T08:49:50.135Z,32.75
2019-04-25T08:50:50.354Z,31.99
2019-04-25T08:51:50.594Z,32.11
2019-04-25T08:52:50.699Z,31.25
2019-04-25T08:53:50.956Z,30.08
2019-04-25T08:54:51.093Z,30.58
2019-04-25T08:55:51.348Z,30.68
2019-04-25T08:56:53.119Z,30.38
2019-04-25T08:57:51.881Z,29.98
2019-04-25T08:59:03.288Z,30.68
2019-04-25T08:59:52.905Z,29.88
2019-04-25T09:00:59.075Z,29.70
2019-04-25T09:01:53.572Z,29.70
2019-04-25T09:02:52.433Z,31.16
2019-04-25T09:03:53.889Z,30.97
2019-04-25T09:04:54.066Z,28.93
2019-04-25T09:05:53.577Z,29.14
2019-04-25T09:06:53.675Z,28.57
2019-04-25T09:07:54.398Z,27.21
2019-04-25T09:08:54.018Z,27.42
2019-04-25T09:09:53.618Z,27.81
2019-04-25T09:10:53.871Z,27.62
2019-04-25T09:11:54.388Z,27.52
2019-04-25T09:12:54.167Z,27.81
2019-04-25T09:13:54.286Z,28.20
2019-04-25T09:14:54.530Z,27.73
2019-04-25T09:15:54.826Z,27.84
2019-04-25T09:16:54.911Z,28.34
2019-04-25T09:17:55.087Z,27.28
2019-04-25T09:18:55.365Z,26.32
2019-04-25T09:19:56.487Z,26.51
2019-04-25T09:20:55.696Z,25.93
2019-04-25T09:21:55.822Z,26.91
2019-04-25T09:22:56.109Z,27.02
2019-04-25T09:23:56.892Z,26.63
2019-04-25T09:24:56.762Z,25.56
2019-04-25T09:25:57.808Z,25.09
2019-04-25T09:26:59.541Z,24.02
2019-04-25T09:27:58.227Z,22.85
2019-04-25T09:28:57.801Z,23.93
2019-04-25T09:29:57.352Z,22.74
2019-04-25T09:30:58.116Z,22.94
2019-04-25T09:31:59.231Z,22.94
2019-04-25T09:32:57.633Z,21.84
2019-04-25T09:33:57.900Z,21.65
2019-04-25T09:34:58.038Z,21.86
2019-04-25T09:35:58.301Z,21.73
2019-04-25T09:36:58.360Z,22.24
2019-04-25T09:37:58.567Z,21.97
2019-04-25T09:38:59.655Z,22.16
2019-04-25T09:39:59.556Z,21.46
2019-04-25T09:41:00.230Z,22.52
2019-04-25T09:42:00.214Z,22.46
2019-04-25T09:43:00.431Z,21.76
2019-04-25T09:44:00.880Z,21.86
2019-04-25T09:45:01.529Z,21.66
2019-04-25T09:46:01.163Z,20.64
2019-04-25T09:47:00.954Z,20.46
2019-04-25T09:48:03.118Z,21.25
2019-04-25T09:49:01.394Z,21.75
2019-04-25T09:50:02.019Z,21.56
2019-04-25T09:51:03.526Z,21.18
2019-04-25T09:52:03.356Z,20.60
2019-04-25T09:53:01.996Z,20.40
2019-04-25T09:54:03.494Z,20.31
2019-04-25T09:55:03.489Z,21.29
2019-04-25T09:56:04.092Z,20.40
2019-04-25T09:57:03.742Z,19.62
2019-04-25T09:58:03.994Z,19.23
2019-04-25T09:59:03.692Z,19.44
2019-04-25T10:00:03.650Z,19.44
2019-04-25T10:01:03.839Z,18.84
2019-04-25T10:02:02.805Z,18.44
2019-04-25T10:03:04.510Z,19.05
2019-04-25T10:04:03.204Z,19.64
2019-04-25T10:05:04.470Z,19.95
2019-04-25T10:06:03.617Z,19.34
2019-04-25T10:07:03.811Z,18.44
2019-04-25T10:08:04.018Z,18.93
2019-04-25T10:09:05.005Z,19.32
2019-04-25T10:10:04.677Z,19.62
2019-04-25T10:11:04.625Z,20.03
2019-04-25T10:12:04.823Z,19.52
2019-04-25T10:13:06.587Z,19.72
2019-04-25T10:14:05.191Z,19.72
2019-04-25T10:15:05.396Z,19.02
2019-04-25T10:16:05.584Z,18.94
2019-04-25T10:17:05.764Z,18.84
2019-04-25T10:18:05.950Z,19.74
2019-04-25T10:19:06.153Z,18.76
2019-04-25T10:20:06.471Z,17.37
2019-04-25T10:21:06.535Z,17.57
2019-04-25T10:22:06.749Z,18.15
2019-04-25T10:23:06.941Z,18.65
2019-04-25T10:24:07.142Z,19.13
2019-04-25T10:25:07.316Z,19.64
2019-04-25T10:26:07.513Z,19.85
2019-04-25T10:27:07.707Z,18.97
2019-04-25T10:28:07.890Z,18.08
2019-04-25T10:29:08.072Z,16.88
2019-04-25T10:30:16.779Z,16.97
2019-04-25T10:31:08.437Z,17.57
2019-04-25T10:32:08.643Z,18.54
2019-04-25T10:33:08.825Z,18.43
2019-04-25T10:34:09.011Z,19.69
2019-04-25T10:35:09.203Z,20.60
2019-04-25T10:36:09.383Z,20.01
2019-04-25T10:37:09.582Z,19.34
2019-04-25T10:38:09.780Z,19.65
2019-04-25T10:39:11.126Z,19.36
2019-04-25T10:40:10.154Z,17.96
2019-04-25T10:41:10.343Z,17.25
2019-04-25T10:42:10.534Z,17.66
2019-04-25T10:43:10.716Z,18.06
2019-04-25T10:44:10.904Z,17.96
2019-04-25T10:45:21.222Z,18.46
2019-04-25T10:46:11.527Z,17.86
2019-04-25T10:47:11.470Z,18.16
2019-04-25T10:48:13.577Z,18.74
2019-04-25T10:49:11.859Z,19.98
2019-04-25T10:50:13.515Z,19.58
2019-04-25T10:51:13.911Z,19.16
2019-04-25T10:52:13.943Z,20.51
2019-04-25T10:53:12.595Z,21.41
2019-04-25T10:54:14.428Z,21.49
2019-04-25T10:55:14.237Z,21.36
2019-04-25T10:56:14.105Z,21.45
2019-04-25T10:57:13.357Z,22.42
2019-04-25T10:58:14.400Z,22.70
2019-04-25T10:59:14.465Z,23.09
2019-04-25T11:00:13.879Z,24.05
2019-04-25T11:01:15.315Z,23.97
2019-04-25T11:02:15.292Z,23.76
2019-04-25T11:03:14.542Z,23.34
2019-04-25T11:04:14.675Z,24.30
2019-04-25T11:05:14.897Z,24.98
2019-04-25T11:06:15.115Z,25.07
2019-04-25T11:07:15.531Z,25.86
2019-04-25T11:08:16.884Z,25.65
2019-04-25T11:09:15.681Z,25.35
2019-04-25T11:10:15.880Z,25.45
2019-04-25T11:11:16.076Z,25.62
2019-04-25T11:12:16.263Z,26.20
2019-04-25T11:13:16.429Z,26.10
2019-04-25T11:14:16.607Z,26.39
2019-04-25T11:15:16.818Z,26.79
2019-04-25T11:16:17.006Z,27.39
2019-04-25T11:17:17.184Z,28.16
2019-04-25T11:18:17.380Z,26.51
2019-04-25T11:19:17.585Z,25.92
2019-04-25T11:20:17.822Z,25.81
2019-04-25T11:21:18.044Z,25.91
2019-04-25T11:22:18.115Z,26.30
2019-04-25T11:23:18.340Z,26.50
2019-04-25T11:24:18.554Z,25.45
2019-04-25T11:25:18.787Z,24.87
2019-04-25T11:26:18.994Z,24.96
2019-04-25T11:27:19.177Z,24.39
2019-04-25T11:28:19.367Z,24.65
2019-04-25T11:29:19.556Z,25.23
2019-04-25T11:30:19.770Z,25.70
2019-04-25T11:31:19.981Z,26.29
2019-04-25T11:32:20.180Z,25.56
2019-04-25T11:33:20.389Z,24.58
2019-04-25T11:34:20.668Z,24.81
2019-04-25T11:35:20.853Z,23.85
2019-04-25T11:36:21.074Z,23.36
2019-04-25T11:37:21.340Z,22.75
2019-04-25T11:38:21.524Z,23.41
2019-04-25T11:39:21.584Z,24.29
2019-04-25T11:40:23.691Z,24.49
2019-04-25T11:41:22.224Z,25.24
2019-04-25T11:42:23.322Z,25.53
2019-04-25T11:43:22.043Z,26.48
2019-04-25T11:44:22.274Z,26.40
2019-04-25T11:45:22.431Z,26.30
2019-04-25T11:46:24.101Z,26.70
2019-04-25T11:47:24.274Z,25.82
2019-04-25T11:48:23.831Z,25.56
2019-04-25T11:49:24.789Z,25.26
2019-04-25T11:50:24.898Z,25.53
2019-04-25T11:51:24.030Z,25.53
2019-04-25T11:52:28.267Z,26.70
2019-04-25T11:53:25.053Z,25.43
2019-04-25T11:54:24.387Z,25.63
2019-04-25T11:55:24.234Z,25.64
2019-04-25T11:56:24.689Z,25.35
2019-04-25T11:57:24.697Z,26.03
2019-04-25T11:58:24.901Z,25.84
2019-04-25T11:59:25.122Z,26.52
2019-04-25T12:00:25.552Z,25.82
2019-04-25T12:01:25.728Z,26.40
2019-04-25T12:02:25.715Z,26.29
2019-04-25T12:03:25.941Z,26.68
2019-04-25T12:04:26.077Z,26.78
2019-04-25T12:05:26.292Z,26.67
2019-04-25T12:06:27.040Z,27.05
2019-04-25T12:07:27.099Z,27.15
2019-04-25T12:08:27.140Z,26.84
2019-04-25T12:09:27.203Z,27.50
2019-04-25T12:10:27.390Z,28.00
2019-04-25T12:11:27.504Z,28.29
2019-04-25T12:12:27.653Z,28.38
2019-04-25T12:13:27.901Z,28.08
2019-04-25T12:14:27.881Z,28.38
2019-04-25T12:15:28.125Z,28.18
2019-04-25T12:16:28.328Z,27.98
2019-04-25T12:17:28.645Z,28.09
2019-04-25T12:18:28.642Z,27.59
2019-04-25T12:19:35.853Z,28.29
2019-04-25T12:20:29.471Z,28.28
2019-04-25T12:21:29.343Z,28.78
2019-04-25T12:22:29.371Z,28.58
2019-04-25T12:23:29.334Z,28.49
2019-04-25T12:24:29.843Z,29.06
2019-04-25T12:25:30.102Z,29.06
2019-04-25T12:26:30.238Z,29.46
2019-04-25T12:27:30.183Z,30.04
2019-04-25T12:28:30.276Z,29.75
2019-04-25T12:29:30.769Z,29.57
2019-04-25T12:30:38.268Z,29.47
2019-04-25T12:31:31.034Z,29.18
2019-04-25T12:32:30.956Z,28.88
2019-04-25T12:33:31.388Z,28.89
2019-04-25T12:34:31.421Z,29.46
2019-04-25T12:35:33.212Z,29.06
2019-04-25T12:36:31.789Z,29.44
2019-04-25T12:37:31.842Z,29.64
2019-04-25T12:38:33.456Z,29.72
2019-04-25T12:39:32.057Z,30.40
2019-04-25T12:40:32.158Z,30.50
2019-04-25T12:41:32.317Z,30.09
2019-04-25T12:42:34.271Z,30.09
2019-04-25T12:43:33.917Z,30.09
2019-04-25T12:44:33.034Z,29.82
2019-04-25T12:45:34.268Z,29.91
2019-04-25T12:46:34.797Z,29.52
2019-04-25T12:47:34.359Z,29.62
2019-04-25T12:48:34.093Z,29.82
2019-04-25T12:49:34.499Z,29.90
2019-04-25T12:50:34.053Z,30.19
2019-04-25T12:51:34.779Z,29.91
2019-04-25T12:52:34.733Z,30.01
2019-04-25T12:53:35.134Z,30.40
2019-04-25T12:54:34.703Z,30.77